createdAt,value
2023-02-19T00:00:11.624Z,0.00
2023-02-19T00:11:13.420Z,0.00
2023-02-19T00:22:15.141Z,0.00
2023-02-19T00:33:16.917Z,0.00
2023-02-19T00:44:18.630Z,0.00
2023-02-19T00:55:20.384Z,0.00
2023-02-19T00:59:01.929Z,2.09
2023-02-19T01:10:03.678Z,2.20
2023-02-19T01:21:05.466Z,0.00
2023-02-19T01:32:07.382Z,0.00
2023-02-19T01:43:08.920Z,0.00
2023-02-19T01:54:10.680Z,0.00
2023-02-19T02:01:32.494Z,2.19
2023-02-19T02:05:14.029Z,2.48
2023-02-19T02:16:15.886Z,2.58
2023-02-19T02:19:57.562Z,2.68
2023-02-19T02:30:59.276Z,0.00
2023-02-19T02:42:01.037Z,3.26
2023-02-19T02:45:42.667Z,3.11
2023-02-19T02:56:44.401Z,0.00
2023-02-19T03:07:46.134Z,0.00
2023-02-19T03:11:27.747Z,2.09
2023-02-19T03:15:09.428Z,3.44
2023-02-19T03:18:50.997Z,2.87
2023-02-19T03:22:32.606Z,2.16
2023-02-19T03:26:14.253Z,2.80
2023-02-19T03:29:55.907Z,3.05
2023-02-19T03:33:37.557Z,2.86
2023-02-19T03:37:19.305Z,3.60
2023-02-19T03:41:01.005Z,3.97
2023-02-19T03:44:42.594Z,3.38
2023-02-19T03:48:24.171Z,3.20
2023-02-19T03:55:45.936Z,3.36
2023-02-19T04:06:47.709Z,0.00
2023-02-19T04:10:29.307Z,2.31
2023-02-19T04:14:10.925Z,2.86
2023-02-19T04:17:52.510Z,2.22
2023-02-19T04:21:34.190Z,4.53
2023-02-19T04:32:35.961Z,0.00
2023-02-19T04:43:37.692Z,0.00
2023-02-19T04:47:19.317Z,2.48
2023-02-19T04:51:00.884Z,1.90
2023-02-19T04:54:42.524Z,2.83
2023-02-19T04:58:24.145Z,2.26
2023-02-19T05:02:05.871Z,3.98
2023-02-19T05:05:47.453Z,2.56
2023-02-19T05:13:09.165Z,2.09
2023-02-19T05:16:50.703Z,2.87
2023-02-19T05:20:32.324Z,3.11
2023-02-19T05:24:14.002Z,3.27
2023-02-19T05:31:36.069Z,5.71
2023-02-19T05:42:37.653Z,0.00
2023-02-19T05:53:39.394Z,0.00
2023-02-19T06:04:41.167Z,0.00
2023-02-19T06:15:42.929Z,0.00
2023-02-19T06:19:24.547Z,2.09
2023-02-19T06:30:26.391Z,0.00
2023-02-19T06:37:48.006Z,1.90
2023-02-19T06:48:49.782Z,0.00
2023-02-19T06:52:31.380Z,2.09
2023-02-19T06:56:12.979Z,2.29
2023-02-19T07:03:34.755Z,4.12
2023-02-19T07:07:16.421Z,2.86
2023-02-19T07:10:58.045Z,2.19
2023-02-19T07:21:59.772Z,2.64
2023-02-19T07:29:21.433Z,2.35
2023-02-19T07:33:03.059Z,2.56
2023-02-19T07:36:44.635Z,2.87
2023-02-19T07:44:06.319Z,3.12
2023-02-19T07:55:08.059Z,0.00
2023-02-19T08:06:09.798Z,0.00
2023-02-19T08:17:11.545Z,0.00
2023-02-19T08:20:53.157Z,2.93
2023-02-19T08:31:54.936Z,0.00
2023-02-19T08:42:56.623Z,0.00
2023-02-19T08:53:58.345Z,0.00
2023-02-19T09:05:00.104Z,0.00
2023-02-19T09:16:01.885Z,0.00
2023-02-19T09:19:43.548Z,3.57
2023-02-19T09:27:05.338Z,4.29
2023-02-19T09:38:07.175Z,3.39
2023-02-19T09:41:48.812Z,2.81
2023-02-19T09:45:30.461Z,5.17
2023-02-19T09:49:12.070Z,4.33
2023-02-19T09:56:33.759Z,2.78
2023-02-19T10:00:15.594Z,4.75
2023-02-19T10:03:57.285Z,2.47
2023-02-19T10:07:40.095Z,3.97
2023-02-19T10:11:21.822Z,3.66
2023-02-19T10:15:03.772Z,5.47
2023-02-19T10:18:45.721Z,6.37
2023-02-19T10:22:27.684Z,9.13
2023-02-19T10:26:09.710Z,4.59
2023-02-19T10:29:51.728Z,8.11
2023-02-19T10:33:33.455Z,3.84
2023-02-19T10:37:15.339Z,5.36
2023-02-19T10:40:57.284Z,5.24
2023-02-19T10:44:39.257Z,7.03
2023-02-19T10:48:21.348Z,7.48
2023-02-19T10:52:03.335Z,6.03
2023-02-19T10:55:45.384Z,4.93
2023-02-19T10:59:27.374Z,5.42
2023-02-19T11:03:09.299Z,5.39
2023-02-19T11:06:51.161Z,5.85
2023-02-19T11:10:33.092Z,7.42
2023-02-19T11:14:15.198Z,9.40
2023-02-19T11:17:57.357Z,9.80
2023-02-19T11:21:39.393Z,11.67
2023-02-19T11:25:21.482Z,11.11
2023-02-19T11:29:03.488Z,12.68
2023-02-19T11:32:45.457Z,9.50
2023-02-19T11:36:29.961Z,5.05
2023-02-19T11:40:09.579Z,13.63
2023-02-19T11:43:51.252Z,5.79
2023-02-19T11:47:33.133Z,6.29
2023-02-19T11:51:15.073Z,5.75
2023-02-19T11:54:57.170Z,8.32
2023-02-19T11:58:39.215Z,6.75
2023-02-19T12:02:21.297Z,6.66
2023-02-19T12:06:03.343Z,6.22
2023-02-19T12:09:45.470Z,6.53
2023-02-19T12:13:27.480Z,7.07
2023-02-19T12:17:09.416Z,8.66
2023-02-19T12:20:51.411Z,5.44
2023-02-19T12:24:33.554Z,6.19
2023-02-19T12:28:15.598Z,6.00
2023-02-19T12:31:57.523Z,6.42
2023-02-19T12:35:39.349Z,6.14
2023-02-19T12:39:21.273Z,8.09
2023-02-19T12:43:03.201Z,8.14
2023-02-19T12:46:45.346Z,8.50
2023-02-19T12:50:27.425Z,10.65
2023-02-19T12:54:09.400Z,9.75
2023-02-19T12:57:51.255Z,4.51
2023-02-19T13:01:33.453Z,9.70
2023-02-19T13:05:15.274Z,8.10
2023-02-19T13:09:06.419Z,8.59
2023-02-19T13:12:39.263Z,6.16
2023-02-19T13:16:21.236Z,8.13
2023-02-19T13:20:03.143Z,6.72
2023-02-19T13:23:45.103Z,7.04
2023-02-19T13:27:26.998Z,7.25
2023-02-19T13:31:09.120Z,6.51
2023-02-19T13:34:50.741Z,5.10
2023-02-19T13:38:32.750Z,5.35
2023-02-19T13:42:14.785Z,5.10
2023-02-19T13:45:56.727Z,5.35
2023-02-19T13:49:38.430Z,4.07
2023-02-19T13:53:20.332Z,3.15
2023-02-19T13:57:02.395Z,6.84
2023-02-19T14:00:44.297Z,5.07
2023-02-19T14:04:26.159Z,5.09
2023-02-19T14:08:08.267Z,5.24
2023-02-19T14:11:50.070Z,5.66
2023-02-19T14:15:31.985Z,5.42
2023-02-19T14:19:14.013Z,4.63
2023-02-19T14:22:56.065Z,4.92
2023-02-19T14:26:38.121Z,4.46
2023-02-19T14:30:20.108Z,3.65
2023-02-19T14:34:02.062Z,5.32
2023-02-19T14:37:44.026Z,4.10
2023-02-19T14:41:26.167Z,5.44
2023-02-19T14:45:08.304Z,5.45
2023-02-19T14:48:50.149Z,4.44
2023-02-19T14:52:32.072Z,4.35
2023-02-19T14:56:13.961Z,4.37
2023-02-19T14:59:55.901Z,3.15
2023-02-19T15:03:37.935Z,4.81
2023-02-19T15:07:19.985Z,5.03
2023-02-19T15:11:01.923Z,4.56
2023-02-19T15:14:44.051Z,6.71
2023-02-19T15:18:26.045Z,3.39
2023-02-19T15:22:07.995Z,4.13
2023-02-19T15:25:50.017Z,4.25
2023-02-19T15:29:31.901Z,3.05
2023-02-19T15:33:13.840Z,3.46
2023-02-19T15:36:55.745Z,2.19
2023-02-19T15:40:37.596Z,2.38
2023-02-19T15:44:19.419Z,2.52
2023-02-19T15:48:01.456Z,2.82
2023-02-19T15:51:43.656Z,5.07
2023-02-19T15:55:25.750Z,4.17
2023-02-19T15:59:07.629Z,2.54
2023-02-19T16:02:49.702Z,3.89
2023-02-19T16:06:31.551Z,3.08
2023-02-19T16:10:13.241Z,2.47
2023-02-19T16:13:55.083Z,4.81
2023-02-19T16:21:16.992Z,3.94
2023-02-19T16:24:58.797Z,2.32
2023-02-19T16:28:40.791Z,3.70
2023-02-19T16:32:22.636Z,2.31
2023-02-19T16:36:04.276Z,2.38
2023-02-19T16:39:47.153Z,3.06
2023-02-19T16:43:29.570Z,3.02
2023-02-19T16:47:11.328Z,2.17
2023-02-19T16:50:53.090Z,3.38
2023-02-19T16:54:34.939Z,3.45
2023-02-19T16:58:17.021Z,4.91
2023-02-19T17:01:58.957Z,4.37
2023-02-19T17:05:40.800Z,4.36
2023-02-19T17:09:22.582Z,4.02
2023-02-19T17:13:04.460Z,2.89
2023-02-19T17:16:46.681Z,5.79
2023-02-19T17:20:28.630Z,3.75
2023-02-19T17:24:11.138Z,3.28
2023-02-19T17:27:53.928Z,2.87
2023-02-19T17:31:35.914Z,2.75
2023-02-19T17:35:18.740Z,3.47
2023-02-19T17:39:00.520Z,2.83
2023-02-19T17:42:42.391Z,3.18
2023-02-19T17:46:24.265Z,3.48
2023-02-19T17:50:06.148Z,3.60
2023-02-19T17:53:48.152Z,4.49
2023-02-19T17:57:30.900Z,3.78
2023-02-19T18:01:13.400Z,3.26
2023-02-19T18:04:55.225Z,3.60
2023-02-19T18:08:37.574Z,3.71
2023-02-19T18:12:19.546Z,3.58
2023-02-19T18:16:01.628Z,2.90
2023-02-19T18:19:44.081Z,3.01
2023-02-19T18:23:25.831Z,3.09
2023-02-19T18:27:07.934Z,3.61
2023-02-19T18:30:50.330Z,4.82
2023-02-19T18:34:32.393Z,4.92
2023-02-19T18:38:14.377Z,3.87
2023-02-19T18:41:58.344Z,4.98
2023-02-19T18:45:41.471Z,3.12
2023-02-19T18:49:23.566Z,3.65
2023-02-19T18:53:05.454Z,4.11
2023-02-19T19:00:27.570Z,2.93
2023-02-19T19:07:49.576Z,2.71
2023-02-19T19:15:11.537Z,1.90
2023-02-19T19:18:53.222Z,2.22
2023-02-19T19:22:34.883Z,3.80
2023-02-19T19:26:16.808Z,3.83
2023-02-19T19:29:58.650Z,1.70
2023-02-19T19:33:41.577Z,2.09
2023-02-19T19:37:23.308Z,3.18
2023-02-19T19:41:05.143Z,2.50
2023-02-19T19:48:27.201Z,2.02
2023-02-19T19:52:09.078Z,2.29
2023-02-19T19:55:50.894Z,4.45
2023-02-19T19:59:32.728Z,2.48
2023-02-19T20:03:17.456Z,4.46
2023-02-19T20:06:59.376Z,2.37
2023-02-19T20:10:41.330Z,2.79
2023-02-19T20:14:23.237Z,2.99
2023-02-19T20:25:25.319Z,0.00
2023-02-19T20:36:27.160Z,0.00
2023-02-19T20:47:29.201Z,4.11
2023-02-19T20:51:11.236Z,2.83
2023-02-19T20:54:53.082Z,2.44
2023-02-19T21:05:55.048Z,0.00
2023-02-19T21:16:57.007Z,0.00
2023-02-19T21:27:58.863Z,0.00
2023-02-19T21:39:00.619Z,0.00
2023-02-19T21:50:02.365Z,0.00
2023-02-19T21:53:44.002Z,2.09
2023-02-19T22:01:05.749Z,2.09
2023-02-19T22:04:47.276Z,2.56
2023-02-19T22:15:49.035Z,2.09
2023-02-19T22:26:50.832Z,0.00
2023-02-19T22:34:12.585Z,4.57
2023-02-19T22:45:14.367Z,2.76
2023-02-19T22:48:56.012Z,1.90
2023-02-19T22:52:37.587Z,2.01
2023-02-19T22:56:19.192Z,2.48
2023-02-19T23:07:21.093Z,0.00
2023-02-19T23:11:02.706Z,6.04
2023-02-19T23:14:44.316Z,3.79
2023-02-19T23:18:25.987Z,5.64
2023-02-19T23:29:27.733Z,0.00
2023-02-19T23:40:29.459Z,0.00
2023-02-19T23:51:31.200Z,0.00
